Time;durP1;ratioP1;P1;durP2;ratioP2;P2;SDS_P1;SDS_P2;PMS_P1;PMS_P2;Temp;Humidity;BMP_temperature;BMP_pressure;BME280_temperature;BME280_humidity;BME280_pressure;Samples;Min_cycle;Max_cycle;Signal;HPM_P1;HPM_P2
2021/12/24 00:00:27;;;;;;;;;1.00;1.00;;;;;8.82;74.81;100671.81;5056015;28;45296;-83
2021/12/24 00:02:56;;;;;;;;;2.50;1.75;;;;;8.90;75.04;100677.13;5038879;28;45567;-83
2021/12/24 00:05:22;;;;;;;;;2.00;1.00;;;;;9.15;74.93;100723.38;5023501;28;45381;-83
2021/12/24 00:07:47;;;;;;;;;1.00;1.00;;;;;8.42;75.21;100599.41;5033251;28;45509;-83
2021/12/24 00:10:13;;;;;;;;;1.75;0.75;;;;;8.81;75.43;100670.06;5043231;28;45236;-82
2021/12/24 00:12:45;;;;;;;;;0.25;0.25;;;;;8.76;75.03;100670.88;5043320;28;45681;-83
2021/12/24 00:15:32;;;;;;;;;3.00;2.00;;;;;8.67;74.84;100653.44;5050311;28;45264;-85
2021/12/24 00:37:03;;;;;;;;;1.25;1.00;;;;;8.95;75.61;100672.84;5076292;28;45321;-83
2021/12/24 00:39:35;;;;;;;;;2.75;2.75;;;;;8.52;75.69;100600.44;5070966;28;45267;-82
2021/12/24 00:42:00;;;;;;;;;2.75;1.25;;;;;8.72;75.95;100631.00;5034031;28;45329;-84
2021/12/24 00:44:26;;;;;;;;;4.75;3.00;;;;;9.14;75.56;100696.50;5046175;28;45413;-84
2021/12/24 00:46:51;;;;;;;;;1.00;0.75;;;;;9.16;76.14;100699.97;5043658;28;45286;-84
2021/12/24 00:49:16;;;;;;;;;0.50;0.50;;;;;8.78;75.75;100622.44;5045425;28;45338;-84
2021/12/24 00:56:58;;;;;;;;;3.00;2.00;;;;;9.00;75.69;100660.81;5042569;28;45334;-82
2021/12/24 00:59:23;;;;;;;;;1.50;1.00;;;;;8.74;75.88;100611.16;5040915;28;45481;-82
2021/12/24 01:01:49;;;;;;;;;1.00;1.00;;;;;8.61;75.91;100577.22;5042989;28;45523;-82
2021/12/24 01:04:14;;;;;;;;;1.50;0.25;;;;;8.62;76.15;100570.31;5042442;28;46974;-83
2021/12/24 01:06:40;;;;;;;;;0.75;0.75;;;;;8.98;76.21;100622.72;5042237;28;45441;-83
2021/12/24 01:09:05;;;;;;;;;1.00;1.00;;;;;8.84;76.04;100589.66;5043302;28;45351;-83
2021/12/24 01:11:31;;;;;;;;;1.00;1.00;;;;;9.00;76.20;100595.03;5042923;28;45327;-83
2021/12/24 01:13:59;;;;;;;;;1.00;1.00;;;;;8.54;76.01;100520.06;5043399;28;45280;-84
2021/12/24 01:16:32;;;;;;;;;0.00;0.00;;;;;8.59;75.73;100524.44;5044334;28;45182;-83
2021/12/24 01:24:12;;;;;;;;;1.00;1.00;;;;;8.88;75.96;100564.59;5042083;28;45485;-83
2021/12/24 01:27:03;;;;;;;;;1.50;1.00;;;;;9.29;75.59;100628.31;5043757;28;45307;-83
2021/12/24 01:43:08;;;;;;;;;0.00;0.00;;;;;8.97;76.20;100590.69;5040413;28;45378;-84
2021/12/24 01:45:36;;;;;;;;;2.00;2.00;;;;;9.31;75.98;100647.38;5040935;28;47125;-85
2021/12/24 01:48:06;;;;;;;;;2.00;2.00;;;;;8.90;75.98;100570.69;5041092;28;45256;-84
2021/12/24 01:50:33;;;;;;;;;1.00;1.00;;;;;8.87;75.66;100581.03;5033491;28;45280;-84
2021/12/24 01:53:01;;;;;;;;;1.25;1.25;;;;;9.31;75.73;100642.16;5032577;28;45359;-84
2021/12/24 01:55:27;;;;;;;;;1.50;0.75;;;;;9.31;75.86;100644.78;5037688;28;45558;-83
2021/12/24 01:57:53;;;;;;;;;1.00;1.00;;;;;8.76;75.93;100548.88;5040611;28;45362;-83
2021/12/24 02:00:23;;;;;;;;;3.00;2.00;;;;;9.08;76.23;100603.81;5029953;28;45238;-81
2021/12/24 02:02:49;;;;;;;;;3.00;1.25;;;;;9.21;76.08;100627.31;5022608;28;45366;-83
2021/12/24 02:05:15;;;;;;;;;1.00;1.00;;;;;9.05;76.06;100582.13;5023228;28;46519;-83
2021/12/24 02:07:41;;;;;;;;;2.00;2.00;;;;;9.04;75.94;100586.47;5021660;28;45275;-84
2021/12/24 02:10:09;;;;;;;;;0.75;0.75;;;;;8.91;76.06;100556.84;5022862;28;45578;-84
2021/12/24 02:12:35;;;;;;;;;0.75;0.75;;;;;9.38;75.95;100633.59;5038185;28;45466;-84
2021/12/24 02:15:05;;;;;;;;;1.00;0.00;;;;;9.05;75.78;100576.91;5046522;28;45400;-85
2021/12/24 02:28:39;;;;;;;;;1.25;1.25;;;;;8.64;75.38;100495.97;5045278;28;45325;-84
2021/12/24 02:31:11;;;;;;;;;2.75;1.00;;;;;9.38;75.45;100615.41;5046057;28;45375;-83
2021/12/24 02:33:37;;;;;;;;;2.00;1.00;;;;;9.11;75.26;100570.09;5065015;28;45255;-83
2021/12/24 02:36:03;;;;;;;;;1.00;0.50;;;;;8.97;75.12;100561.22;5063359;28;47234;-83
2021/12/24 02:38:29;;;;;;;;;1.50;1.00;;;;;9.26;75.40;100607.47;5064890;28;45383;-81
2021/12/24 02:40:54;;;;;;;;;4.50;2.75;;;;;9.02;75.50;100572.56;5065008;28;45361;-83
2021/12/24 02:43:22;;;;;;;;;2.00;2.00;;;;;9.22;75.09;100590.13;5065248;28;45353;-84
2021/12/24 02:45:50;;;;;;;;;0.75;0.75;;;;;8.84;75.46;100542.03;5063897;28;45495;-84
2021/12/24 02:56:17;;;;;;;;;3.00;1.25;;;;;9.16;76.43;100577.06;5046024;28;45404;-82
2021/12/24 02:58:47;;;;;;;;;1.00;1.00;;;;;9.10;75.80;100565.72;5043926;28;45471;-83
2021/12/24 03:01:16;;;;;;;;;1.25;1.25;;;;;8.86;75.98;100533.41;5043499;28;45496;-84
2021/12/24 03:03:44;;;;;;;;;0.50;0.50;;;;;8.64;75.69;100487.31;5044380;28;45341;-83
2021/12/24 03:06:09;;;;;;;;;3.75;1.00;;;;;9.33;75.77;100621.41;5044591;28;46178;-83
2021/12/24 03:08:35;;;;;;;;;2.00;2.00;;;;;8.69;75.59;100506.38;5041570;28;45280;-83
2021/12/24 03:11:00;;;;;;;;;0.25;0.25;;;;;8.98;75.54;100552.63;5024490;28;45485;-83
2021/12/24 03:13:27;;;;;;;;;1.50;1.50;;;;;8.57;75.42;100481.16;5028747;28;45291;-84
2021/12/24 03:15:57;;;;;;;;;2.50;1.00;;;;;8.63;75.46;100478.63;5035729;28;45386;-84
2021/12/24 03:18:27;;;;;;;;;1.00;0.25;;;;;9.03;75.44;100543.13;5023633;28;45410;-83
2021/12/24 03:21:00;;;;;;;;;1.00;1.00;;;;;8.84;75.55;100511.78;5043391;28;45167;-83
2021/12/24 03:23:44;;;;;;;;;1.00;1.00;;;;;8.93;75.24;100524.00;5044411;28;45292;-83
2021/12/24 03:26:14;;;;;;;;;1.00;1.00;;;;;8.95;75.55;100521.41;5042834;28;45429;-83
2021/12/24 03:28:41;;;;;;;;;2.00;0.25;;;;;8.85;75.50;100505.72;5037915;28;45420;-84
2021/12/24 03:31:08;;;;;;;;;2.50;1.25;;;;;9.38;75.64;100592.03;5027614;28;45357;-83
2021/12/24 03:33:35;;;;;;;;;1.00;1.00;;;;;9.21;75.41;100552.00;5049326;28;45255;-84
2021/12/24 03:36:06;;;;;;;;;0.50;0.50;;;;;8.66;75.33;100457.91;5042902;28;46951;-84
2021/12/24 03:38:32;;;;;;;;;1.00;1.00;;;;;9.27;75.18;100553.78;5043874;28;45322;-85
2021/12/24 03:40:57;;;;;;;;;0.00;0.00;;;;;9.40;75.37;100573.00;5044678;28;45367;-84
2021/12/24 03:43:23;;;;;;;;;2.50;2.00;;;;;8.58;75.29;100439.66;5044633;28;45627;-84
2021/12/24 03:45:59;;;;;;;;;1.75;1.50;;;;;8.80;74.76;100473.66;5047902;28;45598;-85
2021/12/24 03:56:29;;;;;;;;;2.00;2.00;;;;;8.98;75.59;100496.34;5025607;28;45654;-83
2021/12/24 03:58:54;;;;;;;;;0.25;0.25;;;;;9.20;75.05;100526.88;5026737;28;45470;-85
2021/12/24 04:01:20;;;;;;;;;1.50;1.00;;;;;8.55;75.57;100418.84;5038900;28;45447;-85
2021/12/24 04:03:45;;;;;;;;;3.00;2.50;;;;;8.72;75.34;100432.03;5024051;28;45563;-85
2021/12/24 04:06:11;;;;;;;;;1.25;1.00;;;;;8.58;75.61;100420.63;5023777;28;45271;-85
2021/12/24 04:08:36;;;;;;;;;2.50;1.75;;;;;9.36;75.59;100548.69;5040822;28;45624;-85
2021/12/24 04:11:02;;;;;;;;;1.00;1.00;;;;;8.42;75.32;100391.00;5043531;28;45350;-84
2021/12/24 04:13:28;;;;;;;;;2.25;1.00;;;;;9.29;76.00;100521.81;5058552;28;45614;-84
2021/12/24 04:15:53;;;;;;;;;0.50;0.50;;;;;9.35;75.81;100533.97;5059567;28;46304;-84
2021/12/24 04:18:34;;;;;;;;;1.00;1.00;;;;;8.84;75.74;100441.69;5058380;28;44823;-85
2021/12/24 04:26:32;;;;;;;;;0.75;0.75;;;;;8.96;75.63;100455.66;5059044;28;45218;-84
2021/12/24 04:28:58;;;;;;;;;1.00;1.00;;;;;8.48;75.26;100385.88;5074059;28;45262;-85
2021/12/24 04:31:31;;;;;;;;;2.75;2.00;;;;;8.92;75.73;100465.16;5055565;28;45411;-84
2021/12/24 04:34:00;;;;;;;;;1.50;0.50;;;;;8.77;75.45;100416.53;5063382;28;45283;-85
2021/12/24 05:03:07;;;;;;;;;1.25;1.25;;;;;9.17;75.75;100465.41;5042015;28;45622;-82
2021/12/24 05:10:37;;;;;;;;;1.25;1.25;;;;;9.04;75.35;100445.34;5041842;28;45330;-82
2021/12/24 05:13:03;;;;;;;;;1.00;1.00;;;;;9.00;76.03;100437.53;5040974;28;45291;-82
2021/12/24 05:15:30;;;;;;;;;2.50;2.50;;;;;8.86;76.40;100414.00;5043694;28;45451;-82
2021/12/24 05:23:07;;;;;;;;;0.75;0.75;;;;;9.16;75.88;100439.41;5022403;28;45413;-82
2021/12/24 05:25:42;;;;;;;;;4.25;1.00;;;;;9.05;75.98;100424.59;5020666;28;45213;-82
2021/12/24 05:28:07;;;;;;;;;2.75;2.75;;;;;9.31;76.07;100469.88;5022966;28;45425;-82
2021/12/24 05:30:33;;;;;;;;;1.00;1.00;;;;;8.56;76.04;100344.50;5022749;28;45483;-82
2021/12/24 05:32:58;;;;;;;;;0.50;0.50;;;;;9.25;76.04;100453.34;5039115;28;45677;-81
2021/12/24 05:35:24;;;;;;;;;1.00;1.00;;;;;9.38;75.94;100475.09;5031448;28;45215;-80
2021/12/24 05:37:49;;;;;;;;;3.50;3.50;;;;;9.10;75.67;100416.84;5040829;28;46706;-81
2021/12/24 05:40:14;;;;;;;;;3.00;1.75;;;;;8.67;75.78;100347.22;5040452;28;45453;-80
2021/12/24 05:42:40;;;;;;;;;1.50;1.50;;;;;9.43;76.00;100482.94;5048829;28;44904;-81
2021/12/24 05:45:07;;;;;;;;;1.75;1.25;;;;;9.23;75.84;100452.47;5049721;28;45210;-81
2021/12/24 05:47:33;;;;;;;;;1.00;1.00;;;;;8.86;75.86;100377.66;5029668;28;45447;-81
2021/12/24 05:50:00;;;;;;;;;0.75;0.25;;;;;9.30;76.14;100447.31;5050587;28;45400;-80
2021/12/24 05:52:25;;;;;;;;;2.00;1.75;;;;;8.95;75.92;100394.19;5042429;28;44764;-82
2021/12/24 05:54:51;;;;;;;;;2.00;1.00;;;;;9.49;76.04;100484.72;5044102;28;45446;-82
2021/12/24 05:57:16;;;;;;;;;1.00;0.25;;;;;9.48;76.14;100483.88;5034495;28;46123;-81
2021/12/24 05:59:42;;;;;;;;;2.00;1.00;;;;;8.85;76.06;100372.47;5037319;28;45457;-81
2021/12/24 06:02:07;;;;;;;;;1.00;1.00;;;;;9.01;75.98;100425.44;5036209;28;45405;-81
2021/12/24 06:04:33;;;;;;;;;1.00;1.00;;;;;8.86;76.34;100393.25;5034267;28;45389;-81
2021/12/24 06:06:58;;;;;;;;;1.75;0.00;;;;;9.07;76.27;100440.19;5033805;28;46303;-81
2021/12/24 06:09:24;;;;;;;;;1.25;1.25;;;;;9.06;76.63;100441.91;5036757;28;45290;-80
2021/12/24 06:11:49;;;;;;;;;2.75;1.00;;;;;9.14;76.94;100442.00;5035062;28;45483;-81
2021/12/24 06:14:15;;;;;;;;;2.00;2.00;;;;;9.17;76.64;100443.75;5035787;28;45421;-81
2021/12/24 06:19:35;;;;;;;;;4.00;2.25;;;;;9.12;76.71;100456.69;5024295;28;45179;-81
2021/12/24 06:22:00;;;;;;;;;1.50;1.25;;;;;9.44;77.19;100502.91;5025469;28;45264;-81
2021/12/24 06:24:25;;;;;;;;;1.00;1.00;;;;;9.40;76.91;100500.25;5023567;28;45630;-81
2021/12/24 06:26:52;;;;;;;;;3.00;0.75;;;;;9.08;77.10;100437.63;5025525;28;45413;-81
2021/12/24 06:29:18;;;;;;;;;1.75;1.75;;;;;9.45;77.38;100494.25;5044683;28;45221;-81
2021/12/24 06:31:44;;;;;;;;;1.00;1.00;;;;;9.27;77.25;100461.16;5050645;28;45447;-82
2021/12/24 06:34:10;;;;;;;;;1.75;1.25;;;;;9.09;77.77;100426.38;5065238;28;45616;-82
2021/12/24 06:36:39;;;;;;;;;0.00;0.00;;;;;9.16;77.53;100431.63;5065240;28;47504;-81
2021/12/24 06:39:06;;;;;;;;;1.25;1.25;;;;;9.28;77.56;100442.09;5051570;28;45925;-82
2021/12/24 06:41:31;;;;;;;;;1.00;1.00;;;;;9.48;77.95;100480.41;5031460;28;45444;-82
2021/12/24 06:43:58;;;;;;;;;3.00;1.00;;;;;9.34;78.08;100456.91;5035704;28;45466;-82
2021/12/24 06:46:23;;;;;;;;;0.50;0.50;;;;;9.14;77.78;100421.22;5039385;28;45338;-82
2021/12/24 06:48:55;;;;;;;;;0.50;0.50;;;;;9.03;78.09;100402.06;5060794;28;45764;-83
2021/12/24 06:51:20;;;;;;;;;1.75;1.75;;;;;9.12;78.33;100407.34;5044502;28;45354;-83
2021/12/24 06:53:46;;;;;;;;;1.75;0.50;;;;;9.47;77.88;100471.72;5038540;28;45369;-84
2021/12/24 06:56:11;;;;;;;;;2.25;1.00;;;;;8.83;77.76;100363.81;5024189;28;45240;-82
2021/12/24 06:58:37;;;;;;;;;1.00;1.00;;;;;9.48;78.29;100473.50;5025533;28;45275;-81
2021/12/24 07:01:03;;;;;;;;;1.00;1.00;;;;;9.19;78.29;100429.91;5028756;28;45625;-81
2021/12/24 07:03:28;;;;;;;;;1.50;1.00;;;;;8.99;78.55;100390.78;5044118;28;45399;-84
2021/12/24 07:05:53;;;;;;;;;1.25;1.00;;;;;9.03;78.71;100402.06;5031731;28;46531;-83
2021/12/24 07:08:19;;;;;;;;;0.00;0.00;;;;;9.15;78.51;100402.19;5035215;28;45383;-83
2021/12/24 07:10:44;;;;;;;;;1.00;1.00;;;;;9.08;78.18;100410.75;5042445;28;45310;-83
2021/12/24 07:13:10;;;;;;;;;0.75;0.75;;;;;9.47;78.27;100478.66;5026112;28;45394;-84
2021/12/24 07:15:35;;;;;;;;;0.00;0.00;;;;;9.48;78.50;100475.19;5024591;28;45433;-84
2021/12/24 07:18:01;;;;;;;;;0.00;0.00;;;;;9.32;78.64;100443.91;5027283;28;45354;-84
2021/12/24 07:20:26;;;;;;;;;1.00;1.00;;;;;9.16;78.78;100409.09;5044823;28;45275;-83
2021/12/24 07:22:52;;;;;;;;;0.25;0.00;;;;;9.41;78.64;100450.03;5044342;28;45418;-83
2021/12/24 07:25:17;;;;;;;;;1.75;1.75;;;;;8.85;78.68;100352.56;5046359;28;45356;-83
2021/12/24 07:27:43;;;;;;;;;0.50;0.00;;;;;9.20;78.70;100416.09;5034186;28;45334;-84
2021/12/24 07:30:11;;;;;;;;;2.00;0.00;;;;;9.11;78.59;100388.31;5024127;28;45353;-84
2021/12/24 07:32:38;;;;;;;;;0.75;0.75;;;;;8.92;79.24;100358.72;5044282;28;45577;-84
2021/12/24 07:35:04;;;;;;;;;0.50;0.50;;;;;9.48;78.60;100446.63;5060694;28;46494;-82
2021/12/24 07:37:29;;;;;;;;;2.00;0.00;;;;;9.34;78.63;100430.94;5044778;28;45348;-82
2021/12/24 07:39:55;;;;;;;;;0.00;0.00;;;;;9.12;78.35;100402.13;5043624;28;45408;-82
2021/12/24 07:42:20;;;;;;;;;2.00;1.00;;;;;9.34;79.02;100446.50;5044149;28;45400;-82
2021/12/24 07:44:46;;;;;;;;;0.00;0.00;;;;;9.12;79.10;100400.44;5043414;28;45358;-82
2021/12/24 07:47:18;;;;;;;;;0.00;0.00;;;;;9.58;78.92;100478.75;5043341;28;45435;-82
2021/12/24 07:49:44;;;;;;;;;0.00;0.00;;;;;9.38;78.82;100443.94;5044251;28;45467;-82
2021/12/24 07:52:33;;;;;;;;;1.25;1.00;;;;;9.21;79.04;100415.22;5043877;28;45528;-81
2021/12/24 07:54:59;;;;;;;;;0.00;0.00;;;;;9.44;79.17;100448.34;5033248;28;45309;-82
2021/12/24 07:57:24;;;;;;;;;0.25;0.25;;;;;9.32;78.83;100427.44;5043534;28;45291;-82
2021/12/24 07:59:51;;;;;;;;;0.75;0.75;;;;;9.32;78.63;100427.44;5035012;28;45320;-85
2021/12/24 08:02:23;;;;;;;;;0.00;0.00;;;;;9.65;78.89;100470.16;5066484;28;45462;-83
2021/12/24 08:04:48;;;;;;;;;0.50;0.00;;;;;9.43;78.86;100433.59;5033953;28;45726;-84
2021/12/24 08:07:15;;;;;;;;;0.00;0.00;;;;;9.44;78.61;100419.75;5034471;28;45417;-84
2021/12/24 08:09:42;;;;;;;;;0.00;0.00;;;;;9.05;78.52;100344.09;5033657;28;45362;-84
2021/12/24 08:12:10;;;;;;;;;1.00;0.00;;;;;9.68;78.77;100440.72;5037438;28;45317;-84
2021/12/24 08:14:36;;;;;;;;;1.00;0.00;;;;;9.59;78.80;100429.38;5034299;28;48465;-85
2021/12/24 08:17:02;;;;;;;;;0.00;0.00;;;;;9.70;78.77;100457.19;5035008;28;45393;-85
2021/12/24 08:19:29;;;;;;;;;1.50;1.00;;;;;9.36;78.89;100396.31;5054684;28;45307;-85
2021/12/24 08:21:56;;;;;;;;;0.00;0.00;;;;;9.37;78.77;100386.75;5033404;28;45267;-82
2021/12/24 08:24:21;;;;;;;;;0.00;0.00;;;;;9.72;78.43;100448.56;5035816;28;47247;-82
2021/12/24 08:26:46;;;;;;;;;0.00;0.00;;;;;8.82;78.83;100290.25;5036178;28;45177;-82
2021/12/24 08:29:12;;;;;;;;;1.00;1.00;;;;;9.74;78.54;100444.22;5034894;28;45224;-83
2021/12/24 08:31:38;;;;;;;;;0.00;0.00;;;;;9.55;78.80;100412.03;5037654;28;45497;-83
2021/12/24 08:34:05;;;;;;;;;0.00;0.00;;;;;9.54;78.41;100410.28;5032644;28;47428;-83
2021/12/24 08:36:31;;;;;;;;;0.00;0.00;;;;;9.77;78.73;100451.16;5031705;28;45540;-84
2021/12/24 08:38:57;;;;;;;;;0.00;0.00;;;;;9.79;78.41;100441.66;5034061;28;45486;-84
2021/12/24 08:41:24;;;;;;;;;0.00;0.00;;;;;9.79;78.66;100445.97;5034142;28;45476;-84
2021/12/24 08:43:49;;;;;;;;;0.00;0.00;;;;;9.65;78.79;100417.31;5031465;28;47238;-83
2021/12/24 08:46:15;;;;;;;;;0.00;0.00;;;;;9.50;78.70;100386.00;5030455;28;45244;-83
2021/12/24 08:48:40;;;;;;;;;0.00;0.00;;;;;9.84;78.74;100436.50;5031029;28;45386;-84
2021/12/24 08:51:06;;;;;;;;;0.00;0.00;;;;;9.85;78.64;100433.91;5031439;28;45366;-84
2021/12/24 08:53:31;;;;;;;;;0.00;0.00;;;;;9.57;78.57;100383.47;5036951;28;46341;-83
2021/12/24 08:55:57;;;;;;;;;1.00;0.00;;;;;9.76;78.67;100400.03;5031992;28;45405;-83
2021/12/24 08:58:22;;;;;;;;;1.00;0.00;;;;;9.81;78.59;100400.09;5034977;28;45363;-83
2021/12/24 09:00:48;;;;;;;;;1.50;0.00;;;;;9.59;78.48;100369.59;5032714;28;45425;-80
2021/12/24 09:03:13;;;;;;;;;1.75;1.00;;;;;9.21;78.31;100300.06;5040835;28;46004;-84
2021/12/24 09:05:48;;;;;;;;;0.00;0.00;;;;;9.89;78.48;100399.28;5037255;28;45301;-85
2021/12/24 09:08:13;;;;;;;;;0.00;0.00;;;;;9.31;78.69;100320.03;5039074;28;45604;-83
2021/12/24 09:10:38;;;;;;;;;2.00;1.00;;;;;9.58;78.31;100354.88;5043893;28;45454;-85
2021/12/24 09:13:04;;;;;;;;;0.00;0.00;;;;;10.09;78.25;100444.44;5044043;28;46188;-83
2021/12/24 09:15:31;;;;;;;;;0.00;0.00;;;;;9.71;78.53;100370.56;5042840;28;45347;-82
2021/12/24 09:17:58;;;;;;;;;0.00;0.00;;;;;9.93;78.74;100402.78;5040900;28;45482;-83
2021/12/24 09:20:29;;;;;;;;;0.00;0.00;;;;;10.05;78.55;100416.69;5033099;28;45424;-83
2021/12/24 09:22:55;;;;;;;;;1.00;0.50;;;;;9.80;78.36;100373.19;5032105;28;46206;-84
2021/12/24 09:25:23;;;;;;;;;0.00;0.00;;;;;10.17;78.59;100445.34;5036488;28;45414;-81
2021/12/24 09:27:50;;;;;;;;;1.25;0.00;;;;;10.12;78.20;100426.25;5036923;28;44900;-81
2021/12/24 09:30:16;;;;;;;;;0.00;0.00;;;;;10.12;78.03;100429.75;5048330;28;45290;-82
2021/12/24 09:32:41;;;;;;;;;0.00;0.00;;;;;9.79;78.15;100366.28;5056316;28;45344;-81
2021/12/24 09:35:08;;;;;;;;;1.25;1.00;;;;;10.19;78.16;100432.34;5052646;28;45195;-80
2021/12/24 09:37:34;;;;;;;;;1.00;0.00;;;;;9.52;78.22;100338.41;5032572;28;45383;-82
2021/12/24 09:40:00;;;;;;;;;1.00;1.00;;;;;9.82;78.27;100379.28;5034003;28;45313;-83
2021/12/24 09:42:27;;;;;;;;;0.00;0.00;;;;;9.78;78.12;100354.16;5031957;28;46353;-81
2021/12/24 09:44:52;;;;;;;;;0.00;0.00;;;;;9.82;78.30;100363.69;5044408;28;45442;-81
2021/12/24 09:47:21;;;;;;;;;0.00;0.00;;;;;9.83;78.27;100359.38;5058653;28;45537;-83
2021/12/24 09:49:46;;;;;;;;;0.50;0.25;;;;;9.97;78.10;100380.22;5044267;28;45424;-81
2021/12/24 09:52:12;;;;;;;;;3.00;1.00;;;;;9.81;78.06;100337.69;5043612;28;46438;-81
2021/12/24 09:54:42;;;;;;;;;0.00;0.00;;;;;10.20;78.10;100390.75;5041499;28;45330;-86
2021/12/24 09:57:08;;;;;;;;;0.25;0.25;;;;;9.92;77.89;100346.41;5040712;28;45551;-82
2021/12/24 09:59:33;;;;;;;;;1.25;0.00;;;;;10.30;77.89;100396.00;5028916;28;45600;-80
2021/12/24 10:02:00;;;;;;;;;0.00;0.00;;;;;9.61;77.94;100296.84;5040090;28;45556;-78
2021/12/24 10:04:29;;;;;;;;;0.25;0.25;;;;;10.24;78.04;100394.25;5033908;28;45530;-79
2021/12/24 10:07:04;;;;;;;;;0.00;0.00;;;;;10.04;77.72;100360.34;5037893;28;45550;-80
2021/12/24 10:09:38;;;;;;;;;2.00;1.00;;;;;9.98;77.87;100355.97;5028042;28;45447;-81
2021/12/24 10:12:08;;;;;;;;;0.00;0.00;;;;;10.41;77.98;100409.06;5031793;28;45568;-79
2021/12/24 10:14:37;;;;;;;;;0.00;0.00;;;;;10.06;78.06;100343.00;5032655;28;45334;-78
2021/12/24 10:17:04;;;;;;;;;1.00;1.00;;;;;10.53;77.88;100401.31;5031265;28;45340;-79
2021/12/24 10:19:43;;;;;;;;;1.00;0.00;;;;;10.55;77.65;100411.75;5032885;28;45469;-79
2021/12/24 10:22:10;;;;;;;;;1.00;1.00;;;;;10.34;77.57;100371.72;5031947;28;46158;-78
2021/12/24 10:24:35;;;;;;;;;1.50;0.00;;;;;9.98;77.56;100323.03;5048673;28;45341;-78
2021/12/24 10:27:00;;;;;;;;;0.00;0.00;;;;;10.25;77.94;100378.66;5046494;28;45433;-81
2021/12/24 10:29:34;;;;;;;;;0.00;0.00;;;;;10.28;77.72;100388.19;5057972;28;45469;-78
2021/12/24 10:32:12;;;;;;;;;0.00;0.00;;;;;9.87;77.70;100317.78;5044367;28;45347;-79
2021/12/24 10:34:39;;;;;;;;;0.00;0.00;;;;;10.07;78.19;100348.22;5056033;28;45275;-79
2021/12/24 10:37:08;;;;;;;;;2.00;0.00;;;;;10.40;78.24;100389.97;5043875;28;45468;-82
2021/12/24 10:39:33;;;;;;;;;0.75;0.00;;;;;10.38;78.05;100384.75;5034549;28;45394;-81
2021/12/24 10:42:01;;;;;;;;;0.50;0.50;;;;;10.39;78.28;100376.09;5037902;28;45494;-80
2021/12/24 10:44:31;;;;;;;;;0.00;0.00;;;;;9.89;77.92;100297.88;5048113;28;45317;-81
2021/12/24 10:47:12;;;;;;;;;0.00;0.00;;;;;10.43;77.86;100376.09;5038582;28;45340;-79
2021/12/24 10:50:04;;;;;;;;;0.00;0.00;;;;;9.79;77.79;100264.88;5048286;28;45541;-78
2021/12/24 10:53:00;;;;;;;;;0.50;0.50;;;;;10.47;78.10;100370.06;5036065;28;45466;-79
2021/12/24 10:55:36;;;;;;;;;0.00;0.00;;;;;10.33;78.23;100333.56;5034445;28;45409;-78
2021/12/24 10:58:03;;;;;;;;;1.00;0.00;;;;;10.49;78.05;100364.03;5043074;28;45480;-77
2021/12/24 11:00:46;;;;;;;;;1.00;0.25;;;;;10.64;77.46;100373.59;5050214;28;45528;-79
2021/12/24 11:03:22;;;;;;;;;1.00;0.00;;;;;10.70;77.92;100371.88;5038931;28;45593;-79
2021/12/24 11:05:52;;;;;;;;;0.75;0.00;;;;;10.58;77.74;100338.88;5044333;28;45290;-78
2021/12/24 11:08:24;;;;;;;;;0.00;0.00;;;;;10.35;77.38;100301.47;5049251;28;45334;-81
2021/12/24 11:10:52;;;;;;;;;0.75;0.75;;;;;10.70;77.34;100359.72;5034171;28;45636;-82
2021/12/24 11:13:21;;;;;;;;;0.00;0.00;;;;;9.90;77.42;100218.16;5046464;28;45579;-80
2021/12/24 11:15:51;;;;;;;;;1.00;1.00;;;;;10.72;77.61;100349.31;5052825;28;45235;-80
2021/12/24 11:18:22;;;;;;;;;0.00;0.00;;;;;10.66;77.64;100315.47;5049092;28;45359;-80
2021/12/24 11:21:03;;;;;;;;;0.75;0.75;;;;;10.80;77.74;100323.28;5046861;28;45525;-83
2021/12/24 11:23:30;;;;;;;;;0.00;0.00;;;;;10.83;77.53;100318.97;5036022;28;46279;-80
2021/12/24 11:26:03;;;;;;;;;0.25;0.00;;;;;10.03;77.16;100185.22;5039402;28;45407;-81
2021/12/24 11:28:28;;;;;;;;;0.75;0.75;;;;;10.61;77.61;100274.69;5043161;28;45375;-80
2021/12/24 11:31:01;;;;;;;;;1.00;1.00;;;;;10.39;77.49;100232.97;5050443;28;45223;-82
2021/12/24 11:33:29;;;;;;;;;0.75;0.50;;;;;10.89;77.30;100305.06;5045432;28;45488;-79
2021/12/24 11:35:56;;;;;;;;;0.00;0.00;;;;;10.25;77.35;100200.88;5053306;28;45300;-79
2021/12/24 11:38:36;;;;;;;;;0.00;0.00;;;;;10.88;77.23;100305.94;5036511;28;45359;-81
2021/12/24 11:41:04;;;;;;;;;0.00;0.00;;;;;10.44;77.41;100237.34;5038680;28;47000;-83
2021/12/24 11:43:33;;;;;;;;;0.00;0.00;;;;;10.66;77.39;100285.09;5041419;28;45452;-82
2021/12/24 11:46:01;;;;;;;;;0.00;0.00;;;;;10.74;77.37;100314.59;5040655;28;45593;-81
2021/12/24 11:48:31;;;;;;;;;0.00;0.00;;;;;10.73;77.39;100312.00;5059644;28;45418;-81
2021/12/24 11:50:58;;;;;;;;;1.50;0.00;;;;;10.73;77.29;100317.22;5061505;28;45210;-79
2021/12/24 11:53:25;;;;;;;;;1.25;1.00;;;;;10.46;77.58;100285.94;5042106;28;45716;-80
2021/12/24 11:55:51;;;;;;;;;1.75;0.00;;;;;10.54;77.31;100272.94;5053390;28;45523;-82
2021/12/24 11:58:20;;;;;;;;;0.00;0.00;;;;;10.41;77.29;100251.19;5039581;28;45514;-81
2021/12/24 12:00:49;;;;;;;;;1.00;1.00;;;;;10.41;77.39;100247.72;5041266;28;45567;-82
2021/12/24 12:03:37;;;;;;;;;1.25;0.00;;;;;10.66;77.50;100281.63;5044831;28;47564;-84
2021/12/24 12:06:11;;;;;;;;;1.00;1.00;;;;;10.66;77.23;100279.91;5051886;28;45398;-80
2021/12/24 12:08:40;;;;;;;;;1.00;1.00;;;;;10.44;77.63;100242.53;5063726;28;45403;-83
2021/12/24 12:11:15;;;;;;;;;0.00;0.00;;;;;10.45;77.45;100244.25;5040278;28;45310;-84
2021/12/24 12:14:01;;;;;;;;;0.50;0.50;;;;;10.93;77.35;100311.16;5042068;28;45353;-82
2021/12/24 12:16:49;;;;;;;;;0.00;0.00;;;;;10.84;77.09;100285.97;5040544;28;45389;-79
2021/12/24 12:19:30;;;;;;;;;1.00;0.75;;;;;10.79;77.28;100285.09;5056503;28;45649;-82
2021/12/24 12:24:57;;;;;;;;;2.00;1.75;;;;;10.24;77.01;100187.00;5034922;28;45577;-81
2021/12/24 12:27:44;;;;;;;;;0.00;0.00;;;;;10.60;77.16;100264.28;5039964;28;45576;-81
2021/12/24 12:30:28;;;;;;;;;1.00;1.00;;;;;10.94;77.33;100310.28;5047010;28;45734;-80
2021/12/24 12:33:12;;;;;;;;;0.00;0.00;;;;;10.88;76.89;100301.59;5046284;28;45672;-79
2021/12/24 12:35:50;;;;;;;;;1.00;1.00;;;;;10.78;77.29;100315.47;5042166;28;46912;-78
2021/12/24 12:38:34;;;;;;;;;0.00;0.00;;;;;10.33;77.53;100248.59;5032710;28;45208;-79
2021/12/24 12:41:35;;;;;;;;;0.50;0.50;;;;;10.70;77.97;100291.16;5040175;28;45478;-79
2021/12/24 12:44:03;;;;;;;;;0.00;0.00;;;;;10.36;77.76;100227.75;5033638;28;45483;-78
2021/12/24 12:46:33;;;;;;;;;1.00;1.00;;;;;10.73;77.78;100280.75;5042856;28;46439;-79
2021/12/24 12:49:05;;;;;;;;;0.00;0.00;;;;;10.57;78.01;100254.69;5046662;28;45498;-82
2021/12/24 12:51:49;;;;;;;;;1.00;1.00;;;;;10.78;77.50;100289.44;5047974;28;45422;-81
2021/12/24 12:54:40;;;;;;;;;5.50;0.75;;;;;10.78;77.54;100292.03;5048244;28;45712;-80
2021/12/24 12:57:22;;;;;;;;;1.00;1.00;;;;;10.79;77.65;100283.38;5031564;28;46151;-80
2021/12/24 13:00:17;;;;;;;;;0.50;0.25;;;;;10.82;77.75;100283.38;5054025;28;45511;-84
2021/12/24 13:03:07;;;;;;;;;0.75;0.75;;;;;10.87;78.03;100273.81;5044309;28;45332;-76
2021/12/24 13:05:54;;;;;;;;;0.00;0.00;;;;;10.93;77.68;100269.50;5045093;28;45496;-75
2021/12/24 13:08:22;;;;;;;;;0.00;0.00;;;;;10.60;77.92;100201.81;5034653;28;47283;-75
2021/12/24 13:11:08;;;;;;;;;1.75;0.00;;;;;10.93;77.28;100246.91;5031625;28;45524;-76
2021/12/24 13:13:55;;;;;;;;;0.00;0.00;;;;;11.00;77.36;100253.84;5039981;28;45248;-77
2021/12/24 13:16:33;;;;;;;;;0.00;0.00;;;;;10.70;77.59;100203.53;5039761;28;45523;-77
2021/12/24 13:19:22;;;;;;;;;1.00;1.00;;;;;10.69;77.21;100199.19;5040365;28;48205;-76
2021/12/24 13:22:31;;;;;;;;;0.25;0.25;;;;;10.99;77.04;100259.94;5044706;28;45719;-79
2021/12/24 13:25:16;;;;;;;;;0.00;0.00;;;;;10.53;76.90;100193.09;5046959;28;45484;-81
2021/12/24 13:27:54;;;;;;;;;0.00;0.00;;;;;10.92;77.18;100266.00;5038668;28;44922;-79
2021/12/24 13:30:24;;;;;;;;;2.00;0.75;;;;;10.30;77.10;100157.53;5053034;28;46305;-79
2021/12/24 13:33:06;;;;;;;;;0.50;0.50;;;;;10.67;76.90;100213.06;5048740;28;45405;-79
2021/12/24 13:35:39;;;;;;;;;4.50;0.50;;;;;10.92;76.90;100246.91;5042315;28;45457;-80
2021/12/24 13:38:12;;;;;;;;;0.00;0.00;;;;;10.17;76.64;100121.97;5056454;28;45509;-80
2021/12/24 13:40:37;;;;;;;;;0.00;0.00;;;;;10.58;76.81;100194.00;5040072;28;45517;-80